createdAt,value
2019-06-01T00:01:15.900Z,1.90
2019-06-01T00:03:46.471Z,2.00
2019-06-01T00:06:16.255Z,2.17
2019-06-01T00:08:47.129Z,2.10
2019-06-01T00:11:16.900Z,1.92
2019-06-01T00:13:47.567Z,1.80
2019-06-01T00:16:17.365Z,1.70
2019-06-01T00:18:48.226Z,1.92
2019-06-01T00:21:18.119Z,1.95
2019-06-01T00:23:48.717Z,1.82
2019-06-01T00:26:18.575Z,1.90
2019-06-01T00:28:48.277Z,1.92
2019-06-01T00:31:17.934Z,1.90
2019-06-01T00:33:47.690Z,1.98
2019-06-01T00:36:17.370Z,2.15
2019-06-01T00:38:47.886Z,2.00
2019-06-01T00:41:17.616Z,2.00
2019-06-01T00:43:48.716Z,2.17
2019-06-01T00:46:18.565Z,2.10
2019-06-01T00:48:49.874Z,2.08
2019-06-01T00:51:19.659Z,2.15
2019-06-01T00:53:49.714Z,1.90
2019-06-01T00:56:19.486Z,2.08
2019-06-01T00:58:49.827Z,1.72
2019-06-01T01:01:19.661Z,2.00
2019-06-01T01:03:50.199Z,2.52
2019-06-01T01:06:20.018Z,2.00
2019-06-01T01:08:50.615Z,1.98
2019-06-01T01:11:20.665Z,1.95
2019-06-01T01:13:51.287Z,2.27
2019-06-01T01:16:21.094Z,2.20
2019-06-01T01:18:51.847Z,2.22
2019-06-01T01:21:21.613Z,1.90
2019-06-01T01:23:52.953Z,1.98
2019-06-01T01:26:22.615Z,1.92
2019-06-01T01:28:52.971Z,2.12
2019-06-01T01:31:22.770Z,2.08
2019-06-01T01:33:53.373Z,2.70
2019-06-01T01:36:23.081Z,2.05
2019-06-01T01:38:54.230Z,2.10
2019-06-01T01:41:24.028Z,2.22
2019-06-01T01:43:54.627Z,2.67
2019-06-01T01:46:24.375Z,2.15
2019-06-01T01:48:54.299Z,2.30
2019-06-01T01:51:23.990Z,2.20
2019-06-01T01:53:54.722Z,2.60
2019-06-01T01:56:24.426Z,2.15
2019-06-01T01:58:54.359Z,2.30
2019-06-01T02:01:24.076Z,2.77
2019-06-01T02:03:55.364Z,2.45
2019-06-01T02:06:28.814Z,2.30
2019-06-01T02:08:57.124Z,2.55
2019-06-01T02:11:26.903Z,2.45
2019-06-01T02:13:57.715Z,2.40
2019-06-01T02:16:27.552Z,2.40
2019-06-01T02:18:58.743Z,2.55
2019-06-01T02:21:28.611Z,2.25
2019-06-01T02:23:59.028Z,2.45
2019-06-01T02:26:28.860Z,2.30
2019-06-01T02:28:59.447Z,2.12
2019-06-01T02:31:41.044Z,2.52
2019-06-01T02:34:01.601Z,2.55
2019-06-01T02:36:32.092Z,2.52
2019-06-01T02:39:03.215Z,2.33
2019-06-01T02:41:33.068Z,2.72
2019-06-01T02:44:03.909Z,2.00
2019-06-01T02:46:35.714Z,2.67
2019-06-01T02:49:06.318Z,2.40
2019-06-01T02:51:36.095Z,2.70
2019-06-01T02:54:06.352Z,2.40
2019-06-01T02:56:36.147Z,2.42
2019-06-01T02:59:06.787Z,2.30
2019-06-01T03:01:39.010Z,2.52
2019-06-01T03:04:10.467Z,2.45
2019-06-01T03:06:43.355Z,2.90
2019-06-01T03:09:13.613Z,2.67
2019-06-01T03:11:43.869Z,2.40
2019-06-01T03:14:14.011Z,2.80
2019-06-01T03:16:44.879Z,2.40
2019-06-01T03:19:18.682Z,2.42
2019-06-01T03:21:51.681Z,2.40
2019-06-01T03:24:25.485Z,2.72
2019-06-01T03:26:56.141Z,2.25
2019-06-01T03:29:30.617Z,2.62
2019-06-01T03:32:19.212Z,2.55
2019-06-01T03:34:31.721Z,2.60
2019-06-01T03:37:02.864Z,2.40
2019-06-01T03:39:33.284Z,2.70
2019-06-01T03:42:03.341Z,2.52
2019-06-01T03:44:33.214Z,2.47
2019-06-01T03:47:03.864Z,2.50
2019-06-01T03:49:33.558Z,2.20
2019-06-01T03:52:03.269Z,2.30
2019-06-01T03:54:32.892Z,2.15
2019-06-01T03:57:03.722Z,2.50
2019-06-01T03:59:33.782Z,2.40
2019-06-01T04:02:05.006Z,2.10
2019-06-01T04:04:34.795Z,2.58
2019-06-01T04:07:04.784Z,2.58
2019-06-01T04:09:34.429Z,2.15
2019-06-01T04:12:04.123Z,2.40
2019-06-01T04:14:33.764Z,2.47
2019-06-01T04:17:04.153Z,2.20
2019-06-01T04:19:33.888Z,2.05
2019-06-01T04:22:04.075Z,2.20
2019-06-01T04:24:33.861Z,2.20
2019-06-01T04:27:04.127Z,2.08
2019-06-01T04:29:33.918Z,2.30
2019-06-01T04:32:04.511Z,2.35
2019-06-01T04:34:35.803Z,2.55
2019-06-01T04:37:07.000Z,2.30
2019-06-01T04:39:36.768Z,2.45
2019-06-01T04:42:07.691Z,2.90
2019-06-01T04:44:37.436Z,2.12
2019-06-01T04:47:09.127Z,2.50
2019-06-01T04:49:38.488Z,2.60
2019-06-01T04:52:08.864Z,2.33
2019-06-01T04:54:38.638Z,2.22
2019-06-01T04:57:08.906Z,2.52
2019-06-01T04:59:38.662Z,2.40
2019-06-01T05:02:09.277Z,2.60
2019-06-01T05:04:39.080Z,3.75
2019-06-01T05:07:09.288Z,3.55
2019-06-01T05:09:39.018Z,3.65
2019-06-01T05:12:09.349Z,3.40
2019-06-01T05:14:39.065Z,2.70
2019-06-01T05:17:10.068Z,2.65
2019-06-01T05:19:40.010Z,2.77
2019-06-01T05:22:10.513Z,2.70
2019-06-01T05:24:40.296Z,2.98
2019-06-01T05:27:11.156Z,2.90
2019-06-01T05:29:40.804Z,2.83
2019-06-01T05:32:10.503Z,2.90
2019-06-01T05:34:40.152Z,2.47
2019-06-01T05:37:10.749Z,2.95
2019-06-01T05:39:40.803Z,2.72
2019-06-01T05:42:10.689Z,3.20
2019-06-01T05:44:40.344Z,2.72
2019-06-01T05:47:10.259Z,3.40
2019-06-01T05:49:39.875Z,3.10
2019-06-01T05:52:10.366Z,3.05
2019-06-01T05:54:40.138Z,3.12
2019-06-01T05:57:10.489Z,3.30
2019-06-01T05:59:40.383Z,3.10
2019-06-01T06:02:11.080Z,3.40
2019-06-01T06:04:41.012Z,3.98
2019-06-01T06:07:10.729Z,2.92
2019-06-01T06:09:40.459Z,3.00
2019-06-01T06:12:11.254Z,3.30
2019-06-01T06:14:40.930Z,2.92
2019-06-01T06:17:12.865Z,3.58
2019-06-01T06:19:42.036Z,3.37
2019-06-01T06:22:12.021Z,3.20
2019-06-01T06:24:41.688Z,3.12
2019-06-01T06:27:12.348Z,3.30
2019-06-01T06:29:44.015Z,3.65
2019-06-01T06:32:13.704Z,3.60
2019-06-01T06:34:43.332Z,3.47
2019-06-01T06:37:13.475Z,3.47
2019-06-01T06:39:43.189Z,2.87
2019-06-01T06:42:13.991Z,3.37
2019-06-01T06:44:43.734Z,3.15
2019-06-01T06:47:14.623Z,3.17
2019-06-01T06:49:44.391Z,3.75
2019-06-01T06:52:15.145Z,5.30
2019-06-01T06:54:44.834Z,3.50
2019-06-01T06:57:14.450Z,4.05
2019-06-01T06:59:44.090Z,3.70
2019-06-01T07:02:13.725Z,4.15
2019-06-01T07:04:43.381Z,3.52
2019-06-01T07:07:13.014Z,3.52
2019-06-01T07:09:42.802Z,3.27
2019-06-01T07:12:12.837Z,3.30
2019-06-01T07:14:42.529Z,3.10
2019-06-01T07:17:15.540Z,3.37
2019-06-01T07:19:43.520Z,3.10
2019-06-01T07:22:16.306Z,2.80
2019-06-01T07:24:44.509Z,2.85
2019-06-01T07:27:14.181Z,2.80
2019-06-01T07:29:43.798Z,3.83
2019-06-01T07:32:13.420Z,2.77
2019-06-01T07:34:43.756Z,2.90
2019-06-01T07:37:13.378Z,3.00
2019-06-01T07:39:43.041Z,3.08
2019-06-01T07:42:12.711Z,3.05
2019-06-01T07:44:42.397Z,2.80
2019-06-01T07:47:12.026Z,2.77
2019-06-01T07:49:41.667Z,2.92
2019-06-01T07:52:13.397Z,2.20
2019-06-01T07:54:42.742Z,2.12
2019-06-01T07:57:12.427Z,2.27
2019-06-01T07:59:42.049Z,2.15
2019-06-01T08:02:11.769Z,2.27
2019-06-01T08:04:53.185Z,2.25
2019-06-01T08:07:12.770Z,2.40
2019-06-01T08:09:42.391Z,2.20
2019-06-01T08:12:12.027Z,2.40
2019-06-01T08:14:41.649Z,2.40
2019-06-01T08:17:11.304Z,2.52
2019-06-01T08:19:40.923Z,2.30
2019-06-01T08:22:10.653Z,2.25
2019-06-01T08:24:40.265Z,1.90
2019-06-01T08:27:09.927Z,1.95
2019-06-01T08:29:39.572Z,2.52
2019-06-01T08:32:09.183Z,1.72
2019-06-01T08:34:38.828Z,2.12
2019-06-01T08:37:08.453Z,2.10
2019-06-01T08:39:38.095Z,2.75
2019-06-01T08:42:07.802Z,2.30
2019-06-01T08:44:37.503Z,2.00
2019-06-01T08:47:07.132Z,2.50
2019-06-01T08:49:36.793Z,2.15
2019-06-01T08:52:06.591Z,1.87
2019-06-01T08:54:36.270Z,1.80
2019-06-01T08:57:05.984Z,1.45
2019-06-01T08:59:35.611Z,1.62
2019-06-01T09:02:05.324Z,1.50
2019-06-01T09:04:35.044Z,1.50
2019-06-01T09:07:04.808Z,1.50
2019-06-01T09:09:35.205Z,1.60
2019-06-01T09:12:05.306Z,1.47
2019-06-01T09:14:35.570Z,1.40
2019-06-01T09:17:05.359Z,1.80
2019-06-01T09:19:35.738Z,1.50
2019-06-01T09:22:05.546Z,1.32
2019-06-01T09:24:36.164Z,1.30
2019-06-01T09:27:06.075Z,1.37
2019-06-01T09:29:36.215Z,1.40
2019-06-01T09:32:10.547Z,1.40
2019-06-01T09:34:37.429Z,1.52
2019-06-01T09:37:07.111Z,1.20
2019-06-01T09:39:37.278Z,1.40
2019-06-01T09:42:07.159Z,1.22
2019-06-01T09:44:37.329Z,1.10
2019-06-01T09:47:07.980Z,1.35
2019-06-01T09:49:38.009Z,3.42
2019-06-01T09:52:12.023Z,2.15
2019-06-01T09:54:39.180Z,1.60
2019-06-01T09:57:08.885Z,1.30
2019-06-01T09:59:38.583Z,1.57
2019-06-01T10:02:08.468Z,1.37
2019-06-01T10:04:38.860Z,1.75
2019-06-01T10:07:08.645Z,2.08
2019-06-01T10:09:38.270Z,1.32
2019-06-01T10:12:08.007Z,1.72
2019-06-01T10:14:39.286Z,2.20
2019-06-01T10:17:09.303Z,1.60
2019-06-01T10:19:38.998Z,1.22
2019-06-01T10:22:08.656Z,1.27
2019-06-01T10:24:39.301Z,0.95
2019-06-01T10:27:09.002Z,0.90
2019-06-01T10:29:39.982Z,1.10
2019-06-01T10:32:09.791Z,1.15
2019-06-01T10:34:39.908Z,4.12
2019-06-01T10:37:09.742Z,3.50
2019-06-01T10:39:39.522Z,1.67
2019-06-01T10:42:09.169Z,1.42
2019-06-01T10:44:45.020Z,1.15
2019-06-01T10:47:10.165Z,1.17
2019-06-01T10:49:40.132Z,1.77
2019-06-01T10:52:10.099Z,2.30
2019-06-01T10:54:40.281Z,1.50
2019-06-01T10:57:10.016Z,1.57
2019-06-01T10:59:40.549Z,1.30
2019-06-01T11:02:10.333Z,2.35
2019-06-01T11:04:41.136Z,1.12
2019-06-01T11:07:10.891Z,1.10
2019-06-01T11:09:41.199Z,1.17
2019-06-01T11:12:10.876Z,1.40
2019-06-01T11:14:41.272Z,1.40
2019-06-01T11:17:11.088Z,1.10
2019-06-01T11:19:42.047Z,1.20
2019-06-01T11:22:11.798Z,2.80
2019-06-01T11:24:41.676Z,1.20
2019-06-01T11:27:11.446Z,1.40
2019-06-01T11:29:48.265Z,1.20
2019-06-01T11:32:12.526Z,0.90
2019-06-01T11:34:42.496Z,1.30
2019-06-01T11:37:15.227Z,1.30
2019-06-01T11:39:44.806Z,1.10
2019-06-01T11:42:14.704Z,1.00
2019-06-01T11:44:44.886Z,1.27
2019-06-01T11:47:14.979Z,1.17
2019-06-01T11:49:45.113Z,1.40
2019-06-01T11:52:14.850Z,1.07
2019-06-01T11:54:45.448Z,1.00
2019-06-01T11:57:15.208Z,1.12
2019-06-01T11:59:45.687Z,0.98
2019-06-01T12:02:15.695Z,1.17
2019-06-01T12:04:46.367Z,1.10
2019-06-01T12:07:17.989Z,0.90
2019-06-01T12:09:47.476Z,1.20
2019-06-01T12:12:17.100Z,1.00
2019-06-01T12:14:46.884Z,1.10
2019-06-01T12:17:16.533Z,1.40
2019-06-01T12:19:46.992Z,1.10
2019-06-01T12:22:16.782Z,1.37
2019-06-01T12:24:47.372Z,0.90
2019-06-01T12:27:17.129Z,1.10
2019-06-01T12:29:48.271Z,0.98
2019-06-01T12:32:18.128Z,1.22
2019-06-01T12:34:48.497Z,0.88
2019-06-01T12:37:36.090Z,1.67
2019-06-01T12:39:52.849Z,2.20
2019-06-01T12:42:21.150Z,1.98
2019-06-01T12:44:51.825Z,1.12
2019-06-01T12:47:21.771Z,2.83
2019-06-01T12:49:52.697Z,3.10
2019-06-01T12:52:22.532Z,2.25
2019-06-01T12:54:53.108Z,1.65
2019-06-01T12:57:22.971Z,1.50
2019-06-01T12:59:53.153Z,1.80
2019-06-01T13:02:22.894Z,2.90
2019-06-01T13:04:53.087Z,2.70
2019-06-01T13:07:22.947Z,1.40
2019-06-01T13:09:53.171Z,1.17
2019-06-01T13:12:22.793Z,1.80
2019-06-01T13:14:52.608Z,2.95
2019-06-01T13:17:22.303Z,1.00
2019-06-01T13:19:52.019Z,2.10
2019-06-01T13:22:21.650Z,1.90
2019-06-01T13:24:52.040Z,1.32
2019-06-01T13:27:21.837Z,1.10
2019-06-01T13:29:52.284Z,3.98
2019-06-01T13:32:22.069Z,0.93
2019-06-01T13:34:51.709Z,6.15
2019-06-01T13:37:21.353Z,2.85
2019-06-01T13:39:56.413Z,3.02
2019-06-01T13:42:22.357Z,0.90
2019-06-01T13:44:52.053Z,2.02
2019-06-01T13:47:21.775Z,1.12
2019-06-01T13:49:51.908Z,1.10
2019-06-01T13:52:21.687Z,2.20
2019-06-01T13:54:52.443Z,1.10
2019-06-01T13:57:22.126Z,1.60
2019-06-01T13:59:52.955Z,1.10
2019-06-01T14:02:22.795Z,0.93
2019-06-01T14:04:52.444Z,1.02
2019-06-01T14:07:22.075Z,2.45
2019-06-01T14:09:52.516Z,1.42
2019-06-01T14:12:23.153Z,0.95
2019-06-01T14:14:53.565Z,1.17
2019-06-01T14:17:23.266Z,0.80
2019-06-01T14:19:53.854Z,0.90
2019-06-01T14:22:23.671Z,0.90
2019-06-01T14:25:08.399Z,2.40
2019-06-01T14:27:24.785Z,7.45
2019-06-01T14:29:54.494Z,4.87
2019-06-01T14:32:24.139Z,2.27
2019-06-01T14:34:54.893Z,0.93
2019-06-01T14:37:24.684Z,1.00
2019-06-01T14:39:57.103Z,2.75
2019-06-01T14:42:26.831Z,1.20
2019-06-01T14:44:57.761Z,1.00
2019-06-01T14:47:27.802Z,1.15
2019-06-01T14:49:57.829Z,0.82
2019-06-01T14:52:30.392Z,1.77
2019-06-01T14:55:00.049Z,0.72
2019-06-01T14:57:29.673Z,1.82
2019-06-01T14:59:59.312Z,3.27
2019-06-01T15:02:29.006Z,3.25
2019-06-01T15:04:58.737Z,3.58
2019-06-01T15:07:28.367Z,2.15
2019-06-01T15:09:58.441Z,1.20
2019-06-01T15:12:28.212Z,1.17
2019-06-01T15:14:57.878Z,0.80
2019-06-01T15:17:27.585Z,2.22
2019-06-01T15:19:58.305Z,1.30
2019-06-01T15:22:28.031Z,5.30
2019-06-01T15:24:58.435Z,2.33
2019-06-01T15:27:28.202Z,1.10
2019-06-01T15:29:59.019Z,1.10
2019-06-01T15:32:28.755Z,1.07
2019-06-01T15:34:59.831Z,0.88
2019-06-01T15:37:29.742Z,0.72
2019-06-01T15:39:59.413Z,0.60
2019-06-01T15:42:29.036Z,1.00
2019-06-01T15:44:59.254Z,1.07
2019-06-01T15:47:28.990Z,2.05
2019-06-01T15:49:59.985Z,3.65
2019-06-01T15:52:29.737Z,1.15
2019-06-01T15:55:00.481Z,1.20
2019-06-01T15:57:30.189Z,0.98
2019-06-01T16:00:00.648Z,1.20
2019-06-01T16:02:30.434Z,1.40
2019-06-01T16:05:01.306Z,1.60
2019-06-01T16:07:31.183Z,1.72
2019-06-01T16:10:06.565Z,1.30
2019-06-01T16:12:32.208Z,2.12
2019-06-01T16:15:02.216Z,1.02
2019-06-01T16:17:32.023Z,0.80
2019-06-01T16:20:02.345Z,1.98
2019-06-01T16:22:32.167Z,1.40
2019-06-01T16:25:02.573Z,1.67
2019-06-01T16:27:32.312Z,0.90
2019-06-01T16:30:03.826Z,1.98
2019-06-01T16:32:33.303Z,1.22
2019-06-01T16:35:03.174Z,1.00
2019-06-01T16:37:32.794Z,1.07
2019-06-01T16:40:05.100Z,1.32
2019-06-01T16:42:33.786Z,0.85
2019-06-01T16:45:04.206Z,1.72
2019-06-01T16:47:33.816Z,1.00
2019-06-01T16:50:04.294Z,2.05
2019-06-01T16:52:33.989Z,2.80
2019-06-01T16:55:05.012Z,2.65
2019-06-01T16:57:35.382Z,2.90
2019-06-01T17:00:10.926Z,2.27
2019-06-01T17:02:40.689Z,1.32
2019-06-01T17:05:12.262Z,2.02
2019-06-01T17:07:41.881Z,1.22
2019-06-01T17:10:25.647Z,0.90
2019-06-01T17:12:45.316Z,1.15
2019-06-01T17:15:17.655Z,0.80
2019-06-01T17:17:47.365Z,0.95
2019-06-01T17:20:41.020Z,2.30
2019-06-01T17:23:26.285Z,1.70
2019-06-01T17:25:42.299Z,2.35
2019-06-01T17:28:12.086Z,2.12
2019-06-01T17:30:41.839Z,1.45
2019-06-01T17:33:11.631Z,1.20
2019-06-01T17:35:41.963Z,0.95
2019-06-01T17:38:12.203Z,1.07
2019-06-01T17:40:43.397Z,1.10
2019-06-01T17:43:15.101Z,1.10
2019-06-01T17:45:44.840Z,0.95
2019-06-01T17:48:25.618Z,1.00
2019-06-01T17:50:45.853Z,1.02
2019-06-01T17:53:15.507Z,1.10
2019-06-01T17:55:45.342Z,1.20
2019-06-01T17:58:15.092Z,1.82
2019-06-01T18:00:44.903Z,1.30
2019-06-01T18:03:14.580Z,1.40
2019-06-01T18:05:44.532Z,1.30
2019-06-01T18:08:14.708Z,1.30
2019-06-01T18:10:53.989Z,1.80
2019-06-01T18:13:16.068Z,1.90
2019-06-01T18:15:49.305Z,1.90
2019-06-01T18:18:17.273Z,2.90
2019-06-01T18:20:47.125Z,4.03
2019-06-01T18:23:16.775Z,4.12
2019-06-01T18:25:46.531Z,6.22
2019-06-01T18:28:19.588Z,2.85
2019-06-01T18:30:49.118Z,2.35
2019-06-01T18:33:19.032Z,2.08
2019-06-01T18:35:48.653Z,2.85
2019-06-01T18:38:18.447Z,3.75
2019-06-01T18:40:48.208Z,3.98
2019-06-01T18:43:19.818Z,3.75
2019-06-01T18:45:50.046Z,3.95
2019-06-01T18:48:20.975Z,4.10
2019-06-01T18:50:50.696Z,3.77
2019-06-01T18:53:20.389Z,3.00
2019-06-01T18:55:50.110Z,1.75
2019-06-01T18:58:19.793Z,1.98
2019-06-01T19:00:49.513Z,1.52
2019-06-01T19:03:19.209Z,1.65
2019-06-01T19:05:48.849Z,1.50
2019-06-01T19:08:18.470Z,1.60
2019-06-01T19:10:49.191Z,2.12
2019-06-01T19:13:19.373Z,1.77
2019-06-01T19:15:49.077Z,1.87
2019-06-01T19:18:18.711Z,1.50
2019-06-01T19:20:48.382Z,1.32
2019-06-01T19:23:21.803Z,1.75
2019-06-01T19:25:49.433Z,1.50
2019-06-01T19:28:19.087Z,1.50
2019-06-01T19:30:48.963Z,2.33
2019-06-01T19:33:19.491Z,2.22
2019-06-01T19:35:52.685Z,2.02
2019-06-01T19:38:22.874Z,1.62
2019-06-01T19:40:52.519Z,1.70
2019-06-01T19:43:22.170Z,2.17
2019-06-01T19:45:51.791Z,1.95
2019-06-01T19:48:21.460Z,1.75
2019-06-01T19:50:51.074Z,1.75
2019-06-01T19:53:20.699Z,2.00
2019-06-01T19:55:50.351Z,1.75
2019-06-01T19:58:20.000Z,1.65
2019-06-01T20:00:49.692Z,1.75
2019-06-01T20:03:22.039Z,1.85
2019-06-01T20:05:50.701Z,2.10
2019-06-01T20:08:20.317Z,2.02
2019-06-01T20:10:49.993Z,1.80
2019-06-01T20:13:19.604Z,2.02
2019-06-01T20:15:49.233Z,1.90
2019-06-01T20:18:19.174Z,2.10
2019-06-01T20:20:48.979Z,1.85
2019-06-01T20:23:19.531Z,1.90
2019-06-01T20:25:49.322Z,1.75
2019-06-01T20:28:19.656Z,2.05
2019-06-01T20:30:49.486Z,1.62
2019-06-01T20:33:20.441Z,2.17
2019-06-01T20:35:50.328Z,2.17
2019-06-01T20:38:20.501Z,2.35
2019-06-01T20:40:50.274Z,2.02
2019-06-01T20:43:20.846Z,2.00
2019-06-01T20:45:50.752Z,2.17
2019-06-01T20:48:20.889Z,2.00
2019-06-01T20:50:50.820Z,1.72
2019-06-01T20:53:21.009Z,2.37
2019-06-01T20:55:50.832Z,2.40
2019-06-01T20:58:22.032Z,1.95
2019-06-01T21:00:51.904Z,1.90
2019-06-01T21:03:21.904Z,1.90
2019-06-01T21:05:51.744Z,2.00
2019-06-01T21:08:22.416Z,1.77
2019-06-01T21:10:52.269Z,2.30
2019-06-01T21:13:22.313Z,2.20
2019-06-01T21:15:52.503Z,2.10
2019-06-01T21:18:22.658Z,1.95
2019-06-01T21:20:52.505Z,2.05
2019-06-01T21:23:23.061Z,2.00
2019-06-01T21:25:52.768Z,1.80
2019-06-01T21:28:23.694Z,2.00
2019-06-01T21:30:53.811Z,2.00
2019-06-01T21:33:26.571Z,2.22
2019-06-01T21:35:54.809Z,2.52
2019-06-01T21:38:25.711Z,2.72
2019-06-01T21:40:55.454Z,2.30
2019-06-01T21:43:35.012Z,2.25
2019-06-01T21:45:56.451Z,2.30
2019-06-01T21:48:26.121Z,1.92
2019-06-01T21:50:55.742Z,2.22
2019-06-01T21:53:26.630Z,1.67
2019-06-01T21:55:56.499Z,1.62
2019-06-01T21:58:26.681Z,1.52
2019-06-01T22:00:57.132Z,1.87
2019-06-01T22:03:27.398Z,2.12
2019-06-01T22:05:57.209Z,2.30
2019-06-01T22:08:27.566Z,2.20
2019-06-01T22:10:57.457Z,1.95
2019-06-01T22:13:28.768Z,1.77
2019-06-01T22:15:58.645Z,1.50
2019-06-01T22:18:28.268Z,1.80
2019-06-01T22:20:57.893Z,1.90
2019-06-01T22:23:28.165Z,1.80
2019-06-01T22:25:57.934Z,1.90
2019-06-01T22:28:28.643Z,1.80
2019-06-01T22:30:58.382Z,1.80
2019-06-01T22:33:28.813Z,2.02
2019-06-01T22:35:58.619Z,1.70
2019-06-01T22:38:28.632Z,1.87
2019-06-01T22:40:58.266Z,1.77
2019-06-01T22:43:43.465Z,1.92
2019-06-01T22:45:59.251Z,2.20
2019-06-01T22:48:29.265Z,1.90
2019-06-01T22:50:59.076Z,1.90
2019-06-01T22:53:28.869Z,2.05
2019-06-01T22:55:58.522Z,1.95
2019-06-01T22:58:29.479Z,2.10
2019-06-01T23:00:59.538Z,2.15
2019-06-01T23:03:30.204Z,2.05
2019-06-01T23:05:59.962Z,2.10
2019-06-01T23:08:29.592Z,2.02
2019-06-01T23:10:59.233Z,1.90
2019-06-01T23:13:28.856Z,1.80
2019-06-01T23:15:58.502Z,1.95
2019-06-01T23:18:28.136Z,1.87
2019-06-01T23:20:57.776Z,2.30
2019-06-01T23:23:28.064Z,2.00
2019-06-01T23:25:57.842Z,2.10
2019-06-01T23:28:28.551Z,2.08
2019-06-01T23:30:58.406Z,2.33
2019-06-01T23:33:28.893Z,2.10
2019-06-01T23:35:58.648Z,2.00
2019-06-01T23:38:28.748Z,1.90
2019-06-01T23:40:58.491Z,2.25
2019-06-01T23:43:28.894Z,2.10
2019-06-01T23:45:58.645Z,2.27
2019-06-01T23:48:29.318Z,1.92
2019-06-01T23:50:59.014Z,2.00
2019-06-01T23:53:29.596Z,2.55
2019-06-01T23:55:59.327Z,2.52
2019-06-01T23:58:30.131Z,2.00
